createdAt,value
2022-08-22T00:02:09.007Z,7.90
2022-08-22T00:02:44.479Z,8.80
2022-08-22T00:02:57.280Z,7.70
2022-08-22T00:03:10.105Z,8.80
2022-08-22T00:04:49.319Z,8.90
2022-08-22T00:07:31.174Z,10.80
2022-08-22T00:10:10.604Z,10.70
2022-08-22T00:12:53.695Z,10.70
2022-08-22T00:15:43.405Z,9.40
2022-08-22T00:18:21.679Z,9.20
2022-08-22T00:21:01.550Z,9.30
2022-08-22T00:23:40.490Z,9.80
2022-08-22T00:26:27.398Z,9.90
2022-08-22T00:29:06.100Z,8.50
2022-08-22T00:31:41.764Z,9.30
2022-08-22T00:34:18.454Z,9.30
2022-08-22T00:36:56.131Z,9.40
2022-08-22T00:39:35.382Z,10.00
2022-08-22T00:42:38.292Z,9.80
2022-08-22T00:45:41.035Z,8.50
2022-08-22T00:48:43.720Z,10.80
2022-08-22T00:51:36.467Z,10.80
2022-08-22T00:54:19.732Z,10.60
2022-08-22T00:57:08.801Z,10.90
2022-08-22T01:00:13.272Z,9.80
2022-08-22T01:03:12.608Z,9.60
2022-08-22T01:06:08.249Z,10.00
2022-08-22T01:08:58.205Z,9.40
2022-08-22T01:11:50.774Z,9.10
2022-08-22T01:14:39.227Z,8.70
2022-08-22T01:17:39.248Z,8.70
2022-08-22T01:20:46.506Z,7.90
2022-08-22T01:23:58.715Z,8.20
2022-08-22T01:27:27.950Z,8.10
2022-08-22T01:30:19.616Z,7.80
2022-08-22T01:33:37.310Z,7.90
2022-08-22T01:36:39.741Z,8.30
2022-08-22T01:39:52.763Z,7.00
2022-08-22T01:42:43.282Z,9.20
2022-08-22T01:45:44.563Z,8.80
2022-08-22T01:48:21.602Z,8.80
2022-08-22T01:50:59.491Z,9.30
2022-08-22T01:53:44.308Z,7.90
2022-08-22T01:56:21.436Z,8.20
2022-08-22T01:59:02.241Z,7.10
2022-08-22T02:01:47.897Z,7.20
2022-08-22T02:04:30.048Z,9.30
2022-08-22T02:07:09.246Z,7.90
2022-08-22T02:09:49.839Z,9.00
2022-08-22T02:12:33.893Z,7.80
2022-08-22T02:15:18.949Z,7.80
2022-08-22T02:18:05.752Z,9.70
2022-08-22T02:20:43.349Z,6.80
2022-08-22T02:23:25.813Z,7.30
2022-08-22T02:26:09.684Z,9.40
2022-08-22T02:28:57.018Z,7.50
2022-08-22T02:31:44.029Z,8.60
2022-08-22T02:34:29.847Z,7.30
2022-08-22T02:37:15.195Z,8.00
2022-08-22T02:39:54.949Z,7.50
2022-08-22T02:42:35.184Z,6.50
2022-08-22T02:45:22.655Z,6.50
2022-08-22T02:48:02.152Z,8.80
2022-08-22T02:50:44.255Z,6.80
2022-08-22T02:53:23.291Z,7.80
2022-08-22T02:56:01.607Z,7.70
2022-08-22T02:58:44.184Z,8.60
2022-08-22T03:01:34.632Z,7.40
2022-08-22T03:04:28.201Z,8.00
2022-08-22T03:07:16.071Z,8.20
2022-08-22T03:09:52.872Z,7.20
2022-08-22T03:12:32.351Z,6.70
2022-08-22T03:15:14.225Z,8.30
2022-08-22T03:17:59.783Z,7.50
2022-08-22T03:23:32.384Z,7.60
2022-08-22T03:26:16.228Z,7.90
2022-08-22T03:28:59.819Z,8.30
2022-08-22T03:31:34.168Z,6.50
2022-08-22T03:34:25.240Z,7.80
2022-08-22T03:37:07.911Z,8.90
2022-08-22T03:39:54.454Z,9.60
2022-08-22T03:42:56.290Z,7.50
2022-08-22T03:45:49.768Z,7.70
2022-08-22T03:48:39.574Z,7.20
2022-08-22T03:51:49.284Z,7.30
2022-08-22T03:55:06.420Z,9.60
2022-08-22T04:00:56.062Z,7.00
2022-08-22T04:04:00.534Z,9.30
2022-08-22T04:07:05.908Z,7.30
2022-08-22T04:10:16.100Z,9.40
2022-08-22T04:13:11.368Z,7.20
2022-08-22T04:15:59.891Z,8.10
2022-08-22T04:19:15.404Z,8.20
2022-08-22T04:22:21.924Z,7.90
2022-08-22T04:25:03.687Z,8.60
2022-08-22T04:27:49.871Z,9.20
2022-08-22T04:30:31.510Z,9.10
2022-08-22T04:33:09.332Z,8.40
2022-08-22T04:35:46.512Z,9.80
2022-08-22T04:38:25.345Z,9.60
2022-08-22T04:41:04.717Z,8.50
2022-08-22T04:43:42.556Z,8.40
2022-08-22T04:46:21.296Z,9.60
2022-08-22T04:48:59.099Z,9.00
2022-08-22T04:51:36.691Z,9.60
2022-08-22T04:54:27.360Z,10.10
2022-08-22T04:57:15.822Z,9.20
2022-08-22T04:59:48.752Z,11.00
2022-08-22T05:02:28.897Z,9.40
2022-08-22T05:05:05.054Z,11.70
2022-08-22T05:07:51.288Z,9.40
2022-08-22T05:10:27.163Z,9.90
2022-08-22T05:13:04.574Z,11.10
2022-08-22T05:15:40.437Z,10.70
2022-08-22T05:18:20.460Z,11.30
2022-08-22T05:20:56.151Z,10.90
2022-08-22T05:23:31.143Z,11.00
2022-08-22T05:26:07.158Z,10.20
2022-08-22T05:28:44.901Z,10.60
2022-08-22T05:31:23.184Z,9.90
2022-08-22T05:34:01.116Z,9.30
2022-08-22T05:36:38.025Z,10.80
2022-08-22T05:39:13.345Z,13.60
2022-08-22T05:44:24.738Z,10.60
2022-08-22T05:47:02.549Z,12.60
2022-08-22T05:49:41.796Z,12.60
2022-08-22T05:52:28.995Z,13.20
2022-08-22T05:55:09.308Z,13.10
2022-08-22T05:57:45.617Z,11.30
2022-08-22T06:00:22.355Z,12.50
2022-08-22T06:03:05.923Z,13.80
2022-08-22T06:05:45.007Z,14.30
2022-08-22T06:08:25.926Z,13.50
2022-08-22T06:11:04.473Z,14.40
2022-08-22T06:13:41.338Z,14.60
2022-08-22T06:16:20.609Z,12.90
2022-08-22T06:18:54.495Z,13.30
2022-08-22T06:21:38.618Z,15.70
2022-08-22T06:24:21.372Z,16.10
2022-08-22T06:26:58.222Z,14.50
2022-08-22T06:29:36.623Z,16.50
2022-08-22T06:32:16.895Z,16.00
2022-08-22T06:35:15.009Z,16.60
2022-08-22T06:37:50.103Z,13.50
2022-08-22T06:40:23.439Z,16.30
2022-08-22T06:42:57.297Z,17.50
2022-08-22T06:45:33.331Z,16.70
2022-08-22T06:48:17.978Z,18.50
2022-08-22T06:50:58.641Z,16.20
2022-08-22T06:53:37.362Z,16.70
2022-08-22T06:56:20.687Z,19.70
2022-08-22T06:58:57.606Z,15.70
2022-08-22T07:01:35.427Z,16.30
2022-08-22T07:04:10.625Z,17.10
2022-08-22T07:09:24.780Z,15.80
2022-08-22T07:11:59.041Z,14.00
2022-08-22T07:14:40.630Z,18.30
2022-08-22T07:17:19.583Z,16.60
2022-08-22T07:20:00.013Z,15.90
2022-08-22T07:22:35.016Z,18.70
2022-08-22T07:25:12.304Z,19.60
2022-08-22T07:28:04.860Z,16.70
2022-08-22T07:30:51.250Z,17.90
2022-08-22T07:33:39.266Z,17.80
2022-08-22T07:36:32.089Z,17.60
2022-08-22T07:39:27.112Z,18.20
2022-08-22T07:42:08.313Z,20.40
2022-08-22T07:44:55.406Z,18.50
2022-08-22T07:47:38.659Z,17.90
2022-08-22T07:50:19.438Z,18.20
2022-08-22T07:52:54.029Z,18.80
2022-08-22T07:55:28.734Z,20.90
2022-08-22T07:58:05.106Z,19.00
2022-08-22T08:00:42.927Z,15.90
2022-08-22T08:03:16.228Z,19.50
2022-08-22T08:05:48.545Z,20.20
2022-08-22T08:08:25.903Z,17.50
2022-08-22T08:11:00.967Z,22.30
2022-08-22T08:13:38.352Z,22.90
2022-08-22T08:16:18.027Z,19.30
2022-08-22T08:18:52.524Z,19.20
2022-08-22T08:21:35.060Z,20.70
2022-08-22T08:24:13.714Z,22.00
2022-08-22T08:27:06.070Z,21.50
2022-08-22T08:29:39.103Z,21.60
2022-08-22T08:32:14.538Z,22.80
2022-08-22T08:34:47.345Z,19.10
2022-08-22T08:37:28.105Z,21.20
2022-08-22T08:40:05.233Z,18.00
2022-08-22T08:43:26.108Z,17.20
2022-08-22T08:46:28.367Z,21.30
2022-08-22T08:49:21.075Z,19.50
2022-08-22T08:55:00.785Z,19.20
2022-08-22T08:57:49.568Z,20.40
2022-08-22T09:00:33.186Z,21.40
2022-08-22T09:03:11.979Z,19.30
2022-08-22T09:06:02.533Z,18.60
2022-08-22T09:08:55.668Z,18.40
2022-08-22T09:12:03.332Z,19.00
2022-08-22T09:15:14.281Z,19.80
2022-08-22T09:18:12.016Z,17.40
2022-08-22T09:21:04.185Z,18.30
2022-08-22T09:24:12.553Z,17.80
2022-08-22T09:26:57.222Z,16.10
2022-08-22T09:29:54.962Z,16.60
2022-08-22T09:32:44.199Z,18.30
2022-08-22T09:35:27.036Z,17.50
2022-08-22T09:38:26.640Z,15.80
2022-08-22T09:41:11.319Z,19.80
2022-08-22T09:43:49.446Z,15.20
2022-08-22T09:46:31.422Z,16.90
2022-08-22T09:49:14.550Z,16.90
2022-08-22T09:52:14.284Z,15.70
2022-08-22T09:54:51.469Z,18.10
2022-08-22T09:57:33.403Z,15.00
2022-08-22T10:00:22.319Z,14.80
2022-08-22T10:03:04.276Z,14.20
2022-08-22T10:05:44.216Z,15.00
2022-08-22T10:08:31.666Z,14.60
2022-08-22T10:11:21.186Z,14.20
2022-08-22T10:14:02.479Z,15.80
2022-08-22T10:16:54.897Z,14.80
2022-08-22T10:19:33.877Z,12.10
2022-08-22T10:22:29.860Z,13.30
2022-08-22T10:25:21.147Z,13.50
2022-08-22T10:28:05.863Z,14.50
2022-08-22T10:30:54.918Z,16.10
2022-08-22T10:33:34.494Z,27.00
2022-08-22T10:36:12.022Z,33.00
2022-08-22T10:38:48.824Z,20.90
2022-08-22T10:41:33.988Z,16.80
2022-08-22T10:44:14.225Z,14.50
2022-08-22T10:46:54.396Z,14.80
2022-08-22T10:49:33.793Z,16.00
2022-08-22T10:52:15.483Z,14.60
2022-08-22T10:54:52.917Z,16.40
2022-08-22T10:57:38.981Z,14.50
2022-08-22T11:00:22.611Z,15.00
2022-08-22T11:05:41.304Z,8.60
2022-08-22T11:08:46.124Z,9.80
2022-08-22T11:11:37.046Z,9.90
2022-08-22T11:14:36.231Z,10.20
2022-08-22T11:17:31.171Z,12.20
2022-08-22T11:20:19.896Z,12.40
2022-08-22T11:23:13.400Z,12.50
2022-08-22T11:25:58.485Z,10.90
2022-08-22T11:28:56.544Z,13.10
2022-08-22T11:31:47.350Z,12.90
2022-08-22T11:34:42.635Z,14.20
2022-08-22T11:37:42.443Z,11.50
2022-08-22T11:40:26.126Z,15.00
2022-08-22T11:43:18.304Z,12.90
2022-08-22T11:45:53.661Z,13.70
2022-08-22T11:48:33.192Z,12.90
2022-08-22T11:51:15.721Z,16.00
2022-08-22T11:53:53.387Z,14.50
2022-08-22T11:56:32.507Z,13.20
2022-08-22T11:59:19.350Z,14.60
2022-08-22T12:02:01.395Z,13.80
2022-08-22T12:04:42.656Z,13.50
2022-08-22T12:07:20.236Z,14.10
2022-08-22T12:09:58.234Z,14.80
2022-08-22T12:12:51.275Z,15.40
2022-08-22T12:15:28.658Z,14.70
2022-08-22T12:18:32.096Z,14.30
2022-08-22T12:21:30.121Z,13.90
2022-08-22T12:24:26.384Z,13.70
2022-08-22T12:27:32.307Z,13.40
2022-08-22T12:30:14.938Z,13.50
2022-08-22T12:33:17.313Z,11.80
2022-08-22T12:36:06.392Z,13.10
2022-08-22T12:39:01.295Z,12.20
2022-08-22T12:42:01.548Z,13.40
2022-08-22T12:44:44.864Z,11.20
2022-08-22T12:47:32.283Z,13.20
2022-08-22T12:50:28.906Z,11.10
2022-08-22T12:53:26.967Z,11.70
2022-08-22T12:56:14.076Z,9.70
2022-08-22T12:59:05.385Z,10.20
2022-08-22T13:01:43.517Z,9.90
2022-08-22T13:04:29.674Z,10.00
2022-08-22T13:07:11.457Z,9.10
2022-08-22T13:09:52.311Z,11.60
2022-08-22T13:12:32.376Z,11.10
2022-08-22T13:15:25.588Z,8.40
2022-08-22T13:18:18.873Z,10.10
2022-08-22T13:20:55.234Z,9.60
2022-08-22T13:23:34.293Z,9.10
2022-08-22T13:26:32.974Z,9.10
2022-08-22T13:29:25.737Z,9.30
2022-08-22T13:32:02.427Z,8.10
2022-08-22T13:34:44.695Z,8.80
2022-08-22T13:37:24.748Z,11.50
2022-08-22T13:40:03.309Z,9.40
2022-08-22T13:42:47.880Z,9.80
2022-08-22T13:45:26.298Z,9.30
2022-08-22T13:48:03.802Z,9.70
2022-08-22T13:50:53.408Z,9.50
2022-08-22T13:53:35.694Z,10.50
2022-08-22T13:56:15.449Z,6.70
2022-08-22T13:58:52.762Z,8.00
2022-08-22T14:01:46.861Z,8.40
2022-08-22T14:04:32.292Z,7.30
2022-08-22T14:07:31.723Z,8.50
2022-08-22T14:10:15.086Z,8.10
2022-08-22T14:13:09.052Z,8.50
2022-08-22T14:15:45.411Z,8.10
2022-08-22T14:18:36.092Z,9.30
2022-08-22T14:21:40.920Z,9.80
2022-08-22T14:24:27.282Z,9.90
2022-08-22T14:27:05.309Z,8.40
2022-08-22T14:29:44.745Z,10.40
2022-08-22T14:32:45.211Z,8.40
2022-08-22T14:35:34.974Z,8.40
2022-08-22T14:38:27.450Z,11.20
2022-08-22T14:41:06.847Z,10.40
2022-08-22T14:43:54.648Z,9.30
2022-08-22T14:46:36.689Z,11.60
2022-08-22T14:49:47.933Z,9.40
2022-08-22T14:52:34.335Z,7.60
2022-08-22T14:55:22.911Z,9.40
2022-08-22T14:58:00.072Z,9.80
2022-08-22T15:00:47.842Z,9.50
2022-08-22T15:03:32.321Z,9.20
2022-08-22T15:06:07.630Z,9.30
2022-08-22T15:08:49.299Z,9.80
2022-08-22T15:11:27.827Z,9.10
2022-08-22T15:14:08.072Z,10.80
2022-08-22T15:16:47.824Z,10.60
2022-08-22T15:19:35.494Z,10.70
2022-08-22T15:22:18.048Z,10.50
2022-08-22T15:25:08.548Z,28.00
2022-08-22T15:27:50.110Z,11.90
2022-08-22T15:30:36.762Z,11.40
2022-08-22T15:33:15.692Z,10.50
2022-08-22T15:35:49.101Z,10.80
2022-08-22T15:38:31.062Z,10.40
2022-08-22T15:41:31.428Z,10.40
2022-08-22T15:44:17.191Z,10.20
2022-08-22T15:47:24.353Z,10.50
2022-08-22T15:50:02.518Z,11.20
2022-08-22T15:53:13.717Z,20.50
2022-08-22T15:56:24.978Z,13.60
2022-08-22T15:59:24.887Z,10.00
2022-08-22T16:02:04.763Z,10.90
2022-08-22T16:04:43.609Z,11.30
2022-08-22T16:07:40.125Z,10.90
2022-08-22T16:10:31.737Z,12.40
2022-08-22T16:13:34.221Z,10.10
2022-08-22T16:16:08.982Z,12.40
2022-08-22T16:19:20.488Z,10.20
2022-08-22T16:22:18.279Z,10.60
2022-08-22T16:25:10.730Z,10.70
2022-08-22T16:27:58.808Z,9.00
2022-08-22T16:30:39.695Z,9.00
2022-08-22T16:33:18.464Z,8.40
2022-08-22T16:36:37.150Z,6.40
2022-08-22T16:39:32.840Z,7.30
2022-08-22T16:42:26.079Z,5.90
2022-08-22T16:45:16.150Z,5.90
2022-08-22T16:47:56.799Z,6.90
2022-08-22T16:50:41.104Z,5.90
2022-08-22T16:53:59.687Z,6.10
2022-08-22T16:56:38.388Z,5.40
2022-08-22T16:59:38.557Z,4.30
2022-08-22T17:02:33.242Z,4.80
2022-08-22T17:05:29.420Z,5.70
2022-08-22T17:08:24.627Z,5.30
2022-08-22T17:11:06.146Z,3.90
2022-08-22T17:13:57.923Z,4.50
2022-08-22T17:16:53.769Z,4.70
2022-08-22T17:19:46.747Z,5.10
2022-08-22T17:22:29.591Z,5.10
2022-08-22T17:25:18.848Z,4.80
2022-08-22T17:28:03.136Z,4.40
2022-08-22T17:30:42.762Z,5.40
2022-08-22T17:33:27.937Z,5.10
2022-08-22T17:36:26.994Z,8.00
2022-08-22T17:39:13.084Z,3.90
2022-08-22T17:44:33.373Z,6.00
2022-08-22T17:47:15.112Z,5.80
2022-08-22T17:49:58.176Z,6.10
2022-08-22T17:52:36.436Z,5.00
2022-08-22T17:55:17.347Z,4.40
2022-08-22T17:57:54.943Z,4.30
2022-08-22T18:00:31.404Z,5.10
2022-08-22T18:03:09.377Z,7.40
2022-08-22T18:05:55.322Z,5.00
2022-08-22T18:08:38.083Z,4.80
2022-08-22T18:11:17.507Z,5.30
2022-08-22T18:13:57.235Z,4.60
2022-08-22T18:16:33.911Z,5.20
2022-08-22T18:19:13.966Z,5.50
2022-08-22T18:21:54.334Z,5.60
2022-08-22T18:24:35.207Z,4.50
2022-08-22T18:27:10.674Z,4.30
2022-08-22T18:30:08.621Z,5.20
2022-08-22T18:32:49.044Z,4.00
2022-08-22T18:35:26.454Z,4.00
2022-08-22T18:38:19.730Z,5.70
2022-08-22T18:40:58.499Z,5.50
2022-08-22T18:43:39.603Z,4.70
2022-08-22T18:46:34.116Z,4.60
2022-08-22T18:49:34.650Z,4.80
2022-08-22T18:52:34.336Z,3.70
2022-08-22T18:55:44.423Z,4.00
2022-08-22T18:58:42.640Z,5.70
2022-08-22T19:01:46.297Z,5.60
2022-08-22T19:04:47.158Z,4.30
2022-08-22T19:07:42.546Z,4.90
2022-08-22T19:10:43.415Z,5.00
2022-08-22T19:13:32.986Z,5.30
2022-08-22T19:16:31.568Z,5.80
2022-08-22T19:19:07.146Z,3.80
2022-08-22T19:25:18.162Z,4.90
2022-08-22T19:28:26.846Z,4.80
2022-08-22T19:31:23.393Z,4.90
2022-08-22T19:34:29.369Z,6.40
2022-08-22T19:37:32.720Z,3.80
2022-08-22T19:40:10.217Z,5.40
2022-08-22T19:42:49.908Z,4.60
2022-08-22T19:45:29.107Z,4.60
2022-08-22T19:48:14.193Z,5.50
2022-08-22T19:50:47.089Z,4.40
2022-08-22T19:53:43.144Z,3.90
2022-08-22T19:56:35.742Z,6.00
2022-08-22T19:59:24.271Z,5.70
2022-08-22T20:02:03.412Z,4.90
2022-08-22T20:05:07.867Z,5.50
2022-08-22T20:07:57.416Z,5.90
2022-08-22T20:10:39.825Z,6.20
2022-08-22T20:13:22.239Z,4.80
2022-08-22T20:16:22.417Z,6.90
2022-08-22T20:19:17.553Z,4.10
2022-08-22T20:22:02.651Z,4.80
2022-08-22T20:24:40.419Z,6.90
2022-08-22T20:27:20.371Z,5.40
2022-08-22T20:30:03.103Z,6.60
2022-08-22T20:32:40.671Z,5.40
2022-08-22T20:35:18.806Z,6.50
2022-08-22T20:38:06.713Z,5.80
2022-08-22T20:41:00.749Z,5.80
2022-08-22T20:43:38.408Z,5.50
2022-08-22T20:46:24.599Z,4.70
2022-08-22T20:48:58.555Z,6.10
2022-08-22T20:51:33.433Z,4.80
2022-08-22T20:54:19.734Z,6.90
2022-08-22T20:56:55.928Z,5.10
2022-08-22T20:59:36.015Z,4.40
2022-08-22T21:02:19.419Z,4.30
2022-08-22T21:05:03.727Z,5.60
2022-08-22T21:07:38.979Z,5.40
2022-08-22T21:10:37.269Z,4.60
2022-08-22T21:13:12.555Z,4.30
2022-08-22T21:15:47.507Z,4.40
2022-08-22T21:18:30.005Z,6.40
2022-08-22T21:21:17.718Z,5.20
2022-08-22T21:23:52.515Z,5.50
2022-08-22T21:26:28.258Z,4.90
2022-08-22T21:29:04.827Z,5.30
2022-08-22T21:31:43.231Z,4.60
2022-08-22T21:34:20.919Z,5.70
2022-08-22T21:36:54.740Z,4.40
2022-08-22T21:39:30.736Z,4.30
2022-08-22T21:42:17.831Z,7.20
2022-08-22T21:44:58.920Z,6.00
2022-08-22T21:47:35.195Z,4.70
2022-08-22T21:50:29.084Z,5.40
2022-08-22T21:53:09.148Z,5.70
2022-08-22T21:55:47.201Z,5.00
2022-08-22T21:58:35.861Z,5.60
2022-08-22T22:01:30.432Z,5.70
2022-08-22T22:04:03.605Z,5.00
2022-08-22T22:06:35.800Z,7.10
2022-08-22T22:09:11.929Z,6.20
2022-08-22T22:11:47.248Z,6.30
2022-08-22T22:14:19.693Z,5.40
2022-08-22T22:16:51.880Z,5.90
2022-08-22T22:19:24.000Z,5.30
2022-08-22T22:21:58.024Z,6.60
2022-08-22T22:24:30.183Z,5.10
2022-08-22T22:27:04.704Z,6.50
2022-08-22T22:29:37.388Z,7.70
2022-08-22T22:32:10.528Z,7.40
2022-08-22T22:34:42.744Z,5.30
2022-08-22T22:37:15.863Z,5.80
2022-08-22T22:39:48.174Z,6.40
2022-08-22T22:42:20.492Z,5.50
2022-08-22T22:44:52.696Z,5.30
2022-08-22T22:47:28.900Z,5.90
2022-08-22T22:50:01.156Z,6.10
2022-08-22T22:52:33.311Z,3.90
2022-08-22T22:55:12.428Z,5.90
2022-08-22T22:57:58.575Z,5.70
2022-08-22T23:00:34.500Z,5.10
2022-08-22T23:03:08.108Z,7.50
2022-08-22T23:05:40.313Z,4.80
2022-08-22T23:08:12.491Z,4.60
2022-08-22T23:10:44.710Z,7.10
2022-08-22T23:13:17.176Z,7.60
2022-08-22T23:15:49.316Z,5.10
2022-08-22T23:18:21.455Z,6.00
2022-08-22T23:21:13.243Z,4.40
2022-08-22T23:23:46.878Z,5.60
2022-08-22T23:26:19.620Z,4.50
2022-08-22T23:28:51.831Z,5.40
2022-08-22T23:31:31.672Z,6.90
2022-08-22T23:34:08.031Z,5.40
2022-08-22T23:36:41.954Z,4.60
2022-08-22T23:39:16.058Z,5.00
2022-08-22T23:41:49.352Z,4.90
2022-08-22T23:44:24.904Z,5.70
2022-08-22T23:46:57.483Z,6.60
2022-08-22T23:49:30.367Z,6.80
2022-08-22T23:52:02.921Z,7.10
2022-08-22T23:54:35.517Z,5.90
2022-08-22T23:57:12.038Z,7.00
2022-08-22T23:59:48.000Z,6.80
